sensor_id;sensor_type;location;lat;lon;timestamp;temperature;humidity
8711;DHT22;4392;47.400;8.062;2023-06-22T00:02:21;25.40;99.90
8711;DHT22;4392;47.400;8.062;2023-06-22T00:04:48;25.30;99.90
8711;DHT22;4392;47.400;8.062;2023-06-22T00:07:14;25.30;99.90
8711;DHT22;4392;47.400;8.062;2023-06-22T00:09:44;25.30;99.90
8711;DHT22;4392;47.400;8.062;2023-06-22T00:12:10;25.10;99.90
8711;DHT22;4392;47.400;8.062;2023-06-22T00:14:35;25.10;99.90
8711;DHT22;4392;47.400;8.062;2023-06-22T00:17:01;25.20;99.90
8711;DHT22;4392;47.400;8.062;2023-06-22T00:19:27;25.10;99.90
8711;DHT22;4392;47.400;8.062;2023-06-22T00:21:53;25.20;99.90
8711;DHT22;4392;47.400;8.062;2023-06-22T00:24:25;25.30;99.90
8711;DHT22;4392;47.400;8.062;2023-06-22T00:26:53;25.30;99.90
8711;DHT22;4392;47.400;8.062;2023-06-22T00:29:19;25.30;99.90
8711;DHT22;4392;47.400;8.062;2023-06-22T00:31:47;25.30;99.90
8711;DHT22;4392;47.400;8.062;2023-06-22T00:34:13;25.30;99.90
8711;DHT22;4392;47.400;8.062;2023-06-22T00:36:39;25.30;99.90
8711;DHT22;4392;47.400;8.062;2023-06-22T00:39:13;25.30;99.90
8711;DHT22;4392;47.400;8.062;2023-06-22T00:41:38;25.20;99.90
8711;DHT22;4392;47.400;8.062;2023-06-22T00:44:04;25.10;99.90
8711;DHT22;4392;47.400;8.062;2023-06-22T00:46:33;25.10;99.90
8711;DHT22;4392;47.400;8.062;2023-06-22T00:49:01;25.10;99.90
8711;DHT22;4392;47.400;8.062;2023-06-22T00:51:27;25.10;99.90
8711;DHT22;4392;47.400;8.062;2023-06-22T00:53:53;25.20;99.90
8711;DHT22;4392;47.400;8.062;2023-06-22T00:56:18;25.20;99.90
8711;DHT22;4392;47.400;8.062;2023-06-22T00:58:51;25.20;99.90
8711;DHT22;4392;47.400;8.062;2023-06-22T01:01:18;25.20;99.90
8711;DHT22;4392;47.400;8.062;2023-06-22T01:03:50;25.20;99.90
8711;DHT22;4392;47.400;8.062;2023-06-22T01:06:22;25.10;99.90
8711;DHT22;4392;47.400;8.062;2023-06-22T01:09:00;25.10;99.90
8711;DHT22;4392;47.400;8.062;2023-06-22T01:11:41;25.00;99.90
8711;DHT22;4392;47.400;8.062;2023-06-22T01:14:24;25.00;99.90
8711;DHT22;4392;47.400;8.062;2023-06-22T01:16:57;25.10;99.90
8711;DHT22;4392;47.400;8.062;2023-06-22T01:19:39;25.00;99.90
8711;DHT22;4392;47.400;8.062;2023-06-22T01:22:16;24.70;99.90
8711;DHT22;4392;47.400;8.062;2023-06-22T01:25:12;24.70;99.90
8711;DHT22;4392;47.400;8.062;2023-06-22T01:28:05;24.70;99.90
8711;DHT22;4392;47.400;8.062;2023-06-22T01:30:41;24.60;99.90
8711;DHT22;4392;47.400;8.062;2023-06-22T01:33:10;24.60;99.90
8711;DHT22;4392;47.400;8.062;2023-06-22T01:35:43;24.60;99.90
8711;DHT22;4392;47.400;8.062;2023-06-22T01:38:09;24.60;99.90
8711;DHT22;4392;47.400;8.062;2023-06-22T01:40:36;24.50;99.90
8711;DHT22;4392;47.400;8.062;2023-06-22T01:43:06;24.40;99.90
8711;DHT22;4392;47.400;8.062;2023-06-22T01:45:32;24.20;99.90
8711;DHT22;4392;47.400;8.062;2023-06-22T01:47:59;24.20;99.90
8711;DHT22;4392;47.400;8.062;2023-06-22T01:50:33;24.00;99.90
8711;DHT22;4392;47.400;8.062;2023-06-22T01:52:59;23.90;99.90
8711;DHT22;4392;47.400;8.062;2023-06-22T01:55:25;23.90;99.90
8711;DHT22;4392;47.400;8.062;2023-06-22T01:57:53;23.80;99.90
8711;DHT22;4392;47.400;8.062;2023-06-22T02:00:22;23.80;99.90
8711;DHT22;4392;47.400;8.062;2023-06-22T02:02:59;23.80;99.90
8711;DHT22;4392;47.400;8.062;2023-06-22T02:05:39;23.80;99.90
8711;DHT22;4392;47.400;8.062;2023-06-22T02:08:29;23.80;99.90
8711;DHT22;4392;47.400;8.062;2023-06-22T02:10:57;23.80;99.90
8711;DHT22;4392;47.400;8.062;2023-06-22T02:13:26;23.80;99.90
8711;DHT22;4392;47.400;8.062;2023-06-22T02:15:54;23.80;99.90
8711;DHT22;4392;47.400;8.062;2023-06-22T02:18:20;23.70;99.90
8711;DHT22;4392;47.400;8.062;2023-06-22T02:20:46;23.70;99.90
8711;DHT22;4392;47.400;8.062;2023-06-22T02:23:15;23.60;99.90
8711;DHT22;4392;47.400;8.062;2023-06-22T02:25:41;23.60;99.90
8711;DHT22;4392;47.400;8.062;2023-06-22T02:28:09;23.50;99.90
8711;DHT22;4392;47.400;8.062;2023-06-22T02:30:35;23.50;99.90
8711;DHT22;4392;47.400;8.062;2023-06-22T02:33:07;23.50;99.90
8711;DHT22;4392;47.400;8.062;2023-06-22T02:35:33;23.50;99.90
8711;DHT22;4392;47.400;8.062;2023-06-22T02:38:05;23.50;99.90
8711;DHT22;4392;47.400;8.062;2023-06-22T02:40:31;23.50;99.90
8711;DHT22;4392;47.400;8.062;2023-06-22T02:42:57;23.50;99.90
8711;DHT22;4392;47.400;8.062;2023-06-22T02:45:31;23.40;99.90
8711;DHT22;4392;47.400;8.062;2023-06-22T02:47:57;23.40;99.90
8711;DHT22;4392;47.400;8.062;2023-06-22T02:50:23;23.30;99.90
8711;DHT22;4392;47.400;8.062;2023-06-22T02:52:49;23.20;99.90
8711;DHT22;4392;47.400;8.062;2023-06-22T02:55:15;23.50;99.90
8711;DHT22;4392;47.400;8.062;2023-06-22T02:57:49;23.90;99.90
8711;DHT22;4392;47.400;8.062;2023-06-22T03:00:19;23.60;99.90
8711;DHT22;4392;47.400;8.062;2023-06-22T03:02:46;23.60;99.90
8711;DHT22;4392;47.400;8.062;2023-06-22T03:05:13;23.70;99.90
8711;DHT22;4392;47.400;8.062;2023-06-22T03:07:45;23.50;99.90
8711;DHT22;4392;47.400;8.062;2023-06-22T03:10:12;23.20;99.90
8711;DHT22;4392;47.400;8.062;2023-06-22T03:12:38;23.10;99.90
8711;DHT22;4392;47.400;8.062;2023-06-22T03:15:06;23.10;99.90
8711;DHT22;4392;47.400;8.062;2023-06-22T03:17:40;23.10;99.90
8711;DHT22;4392;47.400;8.062;2023-06-22T03:20:12;23.10;99.90
8711;DHT22;4392;47.400;8.062;2023-06-22T03:22:39;23.10;99.90
8711;DHT22;4392;47.400;8.062;2023-06-22T03:25:14;23.20;99.90
8711;DHT22;4392;47.400;8.062;2023-06-22T03:27:41;23.20;99.90
8711;DHT22;4392;47.400;8.062;2023-06-22T03:30:14;23.10;99.90
8711;DHT22;4392;47.400;8.062;2023-06-22T03:32:40;23.10;99.90
8711;DHT22;4392;47.400;8.062;2023-06-22T03:35:12;23.10;99.90
8711;DHT22;4392;47.400;8.062;2023-06-22T03:37:40;23.10;99.90
8711;DHT22;4392;47.400;8.062;2023-06-22T03:40:07;23.10;99.90
8711;DHT22;4392;47.400;8.062;2023-06-22T03:42:35;23.00;99.90
8711;DHT22;4392;47.400;8.062;2023-06-22T03:45:02;23.00;99.90
8711;DHT22;4392;47.400;8.062;2023-06-22T03:47:32;23.10;99.90
8711;DHT22;4392;47.400;8.062;2023-06-22T03:50:07;22.80;99.90
8711;DHT22;4392;47.400;8.062;2023-06-22T03:52:34;22.90;99.90
8711;DHT22;4392;47.400;8.062;2023-06-22T03:55:00;22.70;99.90
8711;DHT22;4392;47.400;8.062;2023-06-22T03:57:31;22.70;99.90
8711;DHT22;4392;47.400;8.062;2023-06-22T03:59:57;22.80;99.90
8711;DHT22;4392;47.400;8.062;2023-06-22T04:02:23;22.70;99.90
8711;DHT22;4392;47.400;8.062;2023-06-22T04:04:49;22.80;99.90
8711;DHT22;4392;47.400;8.062;2023-06-22T04:07:18;22.80;99.90
8711;DHT22;4392;47.400;8.062;2023-06-22T04:09:44;22.90;99.90
8711;DHT22;4392;47.400;8.062;2023-06-22T04:12:09;22.80;99.90
8711;DHT22;4392;47.400;8.062;2023-06-22T04:14:35;22.80;99.90
8711;DHT22;4392;47.400;8.062;2023-06-22T04:17:01;22.80;99.90
8711;DHT22;4392;47.400;8.062;2023-06-22T04:19:33;22.90;99.90
8711;DHT22;4392;47.400;8.062;2023-06-22T04:22:05;22.90;99.90
8711;DHT22;4392;47.400;8.062;2023-06-22T04:24:33;22.80;99.90
8711;DHT22;4392;47.400;8.062;2023-06-22T04:26:59;22.90;99.90
8711;DHT22;4392;47.400;8.062;2023-06-22T04:29:31;22.80;99.90
8711;DHT22;4392;47.400;8.062;2023-06-22T04:31:57;22.80;99.90
8711;DHT22;4392;47.400;8.062;2023-06-22T04:34:33;22.80;99.90
8711;DHT22;4392;47.400;8.062;2023-06-22T04:36:59;22.80;99.90
8711;DHT22;4392;47.400;8.062;2023-06-22T04:39:25;22.80;99.90
8711;DHT22;4392;47.400;8.062;2023-06-22T04:41:53;22.90;99.90
8711;DHT22;4392;47.400;8.062;2023-06-22T04:44:20;22.90;99.90
8711;DHT22;4392;47.400;8.062;2023-06-22T04:46:57;22.90;99.90
8711;DHT22;4392;47.400;8.062;2023-06-22T04:49:35;22.90;99.90
8711;DHT22;4392;47.400;8.062;2023-06-22T04:52:11;22.90;99.90
8711;DHT22;4392;47.400;8.062;2023-06-22T04:54:42;23.00;99.90
8711;DHT22;4392;47.400;8.062;2023-06-22T04:57:13;23.00;99.90
8711;DHT22;4392;47.400;8.062;2023-06-22T04:59:46;23.00;99.90
8711;DHT22;4392;47.400;8.062;2023-06-22T05:02:13;23.00;99.90
8711;DHT22;4392;47.400;8.062;2023-06-22T05:04:41;23.00;99.90
8711;DHT22;4392;47.400;8.062;2023-06-22T05:07:07;23.00;99.90
8711;DHT22;4392;47.400;8.062;2023-06-22T05:09:33;23.00;99.90
8711;DHT22;4392;47.400;8.062;2023-06-22T05:11:59;23.00;99.90
8711;DHT22;4392;47.400;8.062;2023-06-22T05:14:33;23.00;99.90
8711;DHT22;4392;47.400;8.062;2023-06-22T05:16:59;23.00;99.90
8711;DHT22;4392;47.400;8.062;2023-06-22T05:19:32;23.00;99.90
8711;DHT22;4392;47.400;8.062;2023-06-22T05:22:01;23.10;99.90
8711;DHT22;4392;47.400;8.062;2023-06-22T05:24:27;23.10;99.90
8711;DHT22;4392;47.400;8.062;2023-06-22T05:26:55;23.00;99.90
8711;DHT22;4392;47.400;8.062;2023-06-22T05:29:21;23.00;99.90
8711;DHT22;4392;47.400;8.062;2023-06-22T05:31:49;23.10;99.90
8711;DHT22;4392;47.400;8.062;2023-06-22T05:34:21;23.10;99.90
8711;DHT22;4392;47.400;8.062;2023-06-22T05:36:48;23.10;99.90
8711;DHT22;4392;47.400;8.062;2023-06-22T05:39:16;23.20;99.90
8711;DHT22;4392;47.400;8.062;2023-06-22T05:41:44;23.20;99.90
8711;DHT22;4392;47.400;8.062;2023-06-22T05:44:10;23.20;99.90
8711;DHT22;4392;47.400;8.062;2023-06-22T05:46:35;23.20;99.90
8711;DHT22;4392;47.400;8.062;2023-06-22T05:49:01;23.20;99.90
8711;DHT22;4392;47.400;8.062;2023-06-22T05:51:27;23.30;99.90
8711;DHT22;4392;47.400;8.062;2023-06-22T05:53:53;23.30;99.90
8711;DHT22;4392;47.400;8.062;2023-06-22T05:56:18;23.30;99.90
8711;DHT22;4392;47.400;8.062;2023-06-22T05:58:48;23.40;99.90
8711;DHT22;4392;47.400;8.062;2023-06-22T06:01:13;23.40;99.90
8711;DHT22;4392;47.400;8.062;2023-06-22T06:03:41;23.40;99.90
8711;DHT22;4392;47.400;8.062;2023-06-22T06:06:07;23.50;99.90
8711;DHT22;4392;47.400;8.062;2023-06-22T06:08:39;23.50;99.90
8711;DHT22;4392;47.400;8.062;2023-06-22T06:11:08;23.50;99.90
8711;DHT22;4392;47.400;8.062;2023-06-22T06:13:34;23.60;99.90
8711;DHT22;4392;47.400;8.062;2023-06-22T06:16:05;23.60;99.90
8711;DHT22;4392;47.400;8.062;2023-06-22T06:18:31;23.60;99.90
8711;DHT22;4392;47.400;8.062;2023-06-22T06:20:57;23.70;99.90
8711;DHT22;4392;47.400;8.062;2023-06-22T06:23:23;23.70;99.90
8711;DHT22;4392;47.400;8.062;2023-06-22T06:25:49;23.70;99.90
8711;DHT22;4392;47.400;8.062;2023-06-22T06:28:17;23.70;99.90
8711;DHT22;4392;47.400;8.062;2023-06-22T06:30:45;23.80;99.90
8711;DHT22;4392;47.400;8.062;2023-06-22T06:33:13;23.80;99.90
8711;DHT22;4392;47.400;8.062;2023-06-22T06:35:41;23.90;99.90
8711;DHT22;4392;47.400;8.062;2023-06-22T06:38:06;24.00;99.90
8711;DHT22;4392;47.400;8.062;2023-06-22T06:40:34;24.10;99.90
8711;DHT22;4392;47.400;8.062;2023-06-22T06:43:00;24.20;99.90
8711;DHT22;4392;47.400;8.062;2023-06-22T06:45:28;24.10;99.90
8711;DHT22;4392;47.400;8.062;2023-06-22T06:47:59;24.20;99.90
8711;DHT22;4392;47.400;8.062;2023-06-22T06:50:25;24.20;99.90
8711;DHT22;4392;47.400;8.062;2023-06-22T06:52:53;24.20;99.90
8711;DHT22;4392;47.400;8.062;2023-06-22T06:55:18;24.20;99.90
8711;DHT22;4392;47.400;8.062;2023-06-22T06:57:51;24.20;99.90
8711;DHT22;4392;47.400;8.062;2023-06-22T07:00:18;24.30;99.90
8711;DHT22;4392;47.400;8.062;2023-06-22T07:02:45;24.20;99.90
8711;DHT22;4392;47.400;8.062;2023-06-22T07:05:15;24.10;99.90
8711;DHT22;4392;47.400;8.062;2023-06-22T07:07:40;24.00;99.90
8711;DHT22;4392;47.400;8.062;2023-06-22T07:10:07;24.00;99.90
8711;DHT22;4392;47.400;8.062;2023-06-22T07:12:40;24.00;99.90
8711;DHT22;4392;47.400;8.062;2023-06-22T07:15:07;23.70;99.90
8711;DHT22;4392;47.400;8.062;2023-06-22T07:17:33;23.80;99.90
8711;DHT22;4392;47.400;8.062;2023-06-22T07:20:04;23.80;99.90
8711;DHT22;4392;47.400;8.062;2023-06-22T07:22:54;23.70;99.90
8711;DHT22;4392;47.400;8.062;2023-06-22T07:25:22;23.80;99.90
8711;DHT22;4392;47.400;8.062;2023-06-22T07:28:06;23.80;99.90
8711;DHT22;4392;47.400;8.062;2023-06-22T07:30:33;23.90;99.90
8711;DHT22;4392;47.400;8.062;2023-06-22T07:32:59;24.00;99.90
8711;DHT22;4392;47.400;8.062;2023-06-22T07:35:33;24.00;99.90
8711;DHT22;4392;47.400;8.062;2023-06-22T07:37:59;24.10;99.90
8711;DHT22;4392;47.400;8.062;2023-06-22T07:40:29;24.10;99.90
8711;DHT22;4392;47.400;8.062;2023-06-22T07:42:55;24.10;99.90
8711;DHT22;4392;47.400;8.062;2023-06-22T07:45:23;24.20;99.90
8711;DHT22;4392;47.400;8.062;2023-06-22T07:47:54;24.30;99.90
8711;DHT22;4392;47.400;8.062;2023-06-22T07:50:20;24.30;99.90
8711;DHT22;4392;47.400;8.062;2023-06-22T07:52:48;24.30;99.90
8711;DHT22;4392;47.400;8.062;2023-06-22T07:55:20;24.40;99.90
8711;DHT22;4392;47.400;8.062;2023-06-22T07:57:47;24.40;99.90
8711;DHT22;4392;47.400;8.062;2023-06-22T08:00:13;24.40;99.90
8711;DHT22;4392;47.400;8.062;2023-06-22T08:02:45;24.50;99.90
8711;DHT22;4392;47.400;8.062;2023-06-22T08:05:11;24.40;99.90
8711;DHT22;4392;47.400;8.062;2023-06-22T08:07:37;24.50;99.90
8711;DHT22;4392;47.400;8.062;2023-06-22T08:10:10;24.60;99.90
8711;DHT22;4392;47.400;8.062;2023-06-22T08:12:36;24.60;99.90
8711;DHT22;4392;47.400;8.062;2023-06-22T08:15:02;24.60;99.90
8711;DHT22;4392;47.400;8.062;2023-06-22T08:17:32;24.60;99.90
8711;DHT22;4392;47.400;8.062;2023-06-22T08:19:58;24.40;99.90
8711;DHT22;4392;47.400;8.062;2023-06-22T08:22:24;24.50;99.90
8711;DHT22;4392;47.400;8.062;2023-06-22T08:24:54;24.60;99.90
8711;DHT22;4392;47.400;8.062;2023-06-22T08:27:20;24.60;99.90
8711;DHT22;4392;47.400;8.062;2023-06-22T08:29:53;24.60;99.90
8711;DHT22;4392;47.400;8.062;2023-06-22T08:32:27;24.70;99.90
8711;DHT22;4392;47.400;8.062;2023-06-22T08:35:10;24.70;99.90
8711;DHT22;4392;47.400;8.062;2023-06-22T08:37:45;24.50;99.90
8711;DHT22;4392;47.400;8.062;2023-06-22T08:40:21;24.50;99.90
8711;DHT22;4392;47.400;8.062;2023-06-22T08:42:47;24.50;99.90
8711;DHT22;4392;47.400;8.062;2023-06-22T08:45:20;24.70;99.90
8711;DHT22;4392;47.400;8.062;2023-06-22T08:47:45;24.90;99.90
8711;DHT22;4392;47.400;8.062;2023-06-22T08:50:11;24.90;99.90
8711;DHT22;4392;47.400;8.062;2023-06-22T08:52:39;25.00;99.90
8711;DHT22;4392;47.400;8.062;2023-06-22T08:55:11;25.00;99.90
8711;DHT22;4392;47.400;8.062;2023-06-22T08:57:36;25.10;99.90
8711;DHT22;4392;47.400;8.062;2023-06-22T09:00:11;25.20;99.90
8711;DHT22;4392;47.400;8.062;2023-06-22T09:02:48;25.20;99.90
8711;DHT22;4392;47.400;8.062;2023-06-22T09:05:14;25.00;99.90
8711;DHT22;4392;47.400;8.062;2023-06-22T09:07:43;25.00;99.90
8711;DHT22;4392;47.400;8.062;2023-06-22T09:10:14;25.00;99.90
8711;DHT22;4392;47.400;8.062;2023-06-22T09:12:40;25.10;99.90
8711;DHT22;4392;47.400;8.062;2023-06-22T09:15:11;25.20;99.90
8711;DHT22;4392;47.400;8.062;2023-06-22T09:17:40;25.20;99.90
8711;DHT22;4392;47.400;8.062;2023-06-22T09:20:15;25.20;99.90
8711;DHT22;4392;47.400;8.062;2023-06-22T09:22:41;25.10;99.90
8711;DHT22;4392;47.400;8.062;2023-06-22T09:25:12;25.20;99.90
8711;DHT22;4392;47.400;8.062;2023-06-22T09:27:38;25.20;99.90
8711;DHT22;4392;47.400;8.062;2023-06-22T09:30:05;25.20;99.90
8711;DHT22;4392;47.400;8.062;2023-06-22T09:32:31;25.20;99.90
8711;DHT22;4392;47.400;8.062;2023-06-22T09:35:04;25.20;99.90
8711;DHT22;4392;47.400;8.062;2023-06-22T09:37:31;25.30;99.90
8711;DHT22;4392;47.400;8.062;2023-06-22T09:40:00;25.40;99.90
8711;DHT22;4392;47.400;8.062;2023-06-22T09:42:25;25.40;99.90
8711;DHT22;4392;47.400;8.062;2023-06-22T09:44:51;25.50;99.90
8711;DHT22;4392;47.400;8.062;2023-06-22T09:47:17;25.40;99.90
8711;DHT22;4392;47.400;8.062;2023-06-22T09:49:45;25.40;99.90
8711;DHT22;4392;47.400;8.062;2023-06-22T09:52:16;25.40;99.90
8711;DHT22;4392;47.400;8.062;2023-06-22T09:54:42;25.50;99.90
8711;DHT22;4392;47.400;8.062;2023-06-22T09:57:07;25.50;99.90
8711;DHT22;4392;47.400;8.062;2023-06-22T09:59:33;25.50;99.90
8711;DHT22;4392;47.400;8.062;2023-06-22T10:02:03;25.50;99.90
8711;DHT22;4392;47.400;8.062;2023-06-22T10:04:28;25.60;99.90
8711;DHT22;4392;47.400;8.062;2023-06-22T10:06:54;25.50;99.90
8711;DHT22;4392;47.400;8.062;2023-06-22T10:09:20;25.50;99.90
8711;DHT22;4392;47.400;8.062;2023-06-22T10:11:48;25.50;99.90
8711;DHT22;4392;47.400;8.062;2023-06-22T10:14:19;25.50;99.90
8711;DHT22;4392;47.400;8.062;2023-06-22T10:16:48;25.50;99.90
8711;DHT22;4392;47.400;8.062;2023-06-22T10:19:17;25.60;99.90
8711;DHT22;4392;47.400;8.062;2023-06-22T10:21:43;25.70;99.90
8711;DHT22;4392;47.400;8.062;2023-06-22T10:24:11;25.80;99.90
8711;DHT22;4392;47.400;8.062;2023-06-22T10:26:37;25.90;99.90
8711;DHT22;4392;47.400;8.062;2023-06-22T10:29:03;25.90;99.90
8711;DHT22;4392;47.400;8.062;2023-06-22T10:31:31;25.80;99.90
8711;DHT22;4392;47.400;8.062;2023-06-22T10:34:02;25.70;99.90
8711;DHT22;4392;47.400;8.062;2023-06-22T10:36:28;25.70;99.90
8711;DHT22;4392;47.400;8.062;2023-06-22T10:38:54;25.70;99.90
8711;DHT22;4392;47.400;8.062;2023-06-22T10:41:21;25.80;99.90
8711;DHT22;4392;47.400;8.062;2023-06-22T10:43:51;25.80;99.90
8711;DHT22;4392;47.400;8.062;2023-06-22T10:46:16;25.90;99.90
8711;DHT22;4392;47.400;8.062;2023-06-22T10:48:42;25.90;99.90
8711;DHT22;4392;47.400;8.062;2023-06-22T10:51:14;25.90;99.90
8711;DHT22;4392;47.400;8.062;2023-06-22T10:53:39;25.90;99.90
8711;DHT22;4392;47.400;8.062;2023-06-22T10:56:05;25.90;99.90
8711;DHT22;4392;47.400;8.062;2023-06-22T10:58:31;25.90;99.90
8711;DHT22;4392;47.400;8.062;2023-06-22T11:00:57;25.90;99.90
8711;DHT22;4392;47.400;8.062;2023-06-22T11:03:24;25.90;99.90
8711;DHT22;4392;47.400;8.062;2023-06-22T11:05:50;26.00;99.90
8711;DHT22;4392;47.400;8.062;2023-06-22T11:08:19;26.00;99.90
8711;DHT22;4392;47.400;8.062;2023-06-22T11:10:45;26.00;99.90
8711;DHT22;4392;47.400;8.062;2023-06-22T11:13:11;25.90;99.90
8711;DHT22;4392;47.400;8.062;2023-06-22T11:15:36;25.90;99.90
8711;DHT22;4392;47.400;8.062;2023-06-22T11:18:02;26.00;99.90
8711;DHT22;4392;47.400;8.062;2023-06-22T11:20:36;26.00;99.90
8711;DHT22;4392;47.400;8.062;2023-06-22T11:23:11;26.10;99.90
8711;DHT22;4392;47.400;8.062;2023-06-22T11:25:37;26.20;99.90
8711;DHT22;4392;47.400;8.062;2023-06-22T11:28:04;26.20;99.90
8711;DHT22;4392;47.400;8.062;2023-06-22T11:30:30;26.30;99.90
8711;DHT22;4392;47.400;8.062;2023-06-22T11:33:02;26.30;99.90
8711;DHT22;4392;47.400;8.062;2023-06-22T11:35:28;26.30;99.90
8711;DHT22;4392;47.400;8.062;2023-06-22T11:38:00;26.30;99.90
8711;DHT22;4392;47.400;8.062;2023-06-22T11:40:26;26.30;99.90
8711;DHT22;4392;47.400;8.062;2023-06-22T11:42:52;26.30;99.90
8711;DHT22;4392;47.400;8.062;2023-06-22T11:45:20;26.30;99.90
8711;DHT22;4392;47.400;8.062;2023-06-22T11:47:48;26.30;99.90
8711;DHT22;4392;47.400;8.062;2023-06-22T11:50:13;26.30;99.90
8711;DHT22;4392;47.400;8.062;2023-06-22T11:52:40;26.20;99.90
8711;DHT22;4392;47.400;8.062;2023-06-22T11:55:06;26.20;99.90
8711;DHT22;4392;47.400;8.062;2023-06-22T11:57:36;26.30;99.90
8711;DHT22;4392;47.400;8.062;2023-06-22T12:00:05;26.30;99.90
8711;DHT22;4392;47.400;8.062;2023-06-22T12:02:35;26.40;99.90
8711;DHT22;4392;47.400;8.062;2023-06-22T12:05:01;26.40;99.90
8711;DHT22;4392;47.400;8.062;2023-06-22T12:07:32;26.20;99.90
8711;DHT22;4392;47.400;8.062;2023-06-22T12:10:00;26.30;99.90
8711;DHT22;4392;47.400;8.062;2023-06-22T12:12:26;26.30;99.90
8711;DHT22;4392;47.400;8.062;2023-06-22T12:14:54;26.30;99.90
8711;DHT22;4392;47.400;8.062;2023-06-22T12:17:20;26.30;99.90
8711;DHT22;4392;47.400;8.062;2023-06-22T12:19:48;26.20;99.90
8711;DHT22;4392;47.400;8.062;2023-06-22T12:22:21;26.20;99.90
8711;DHT22;4392;47.400;8.062;2023-06-22T12:24:47;26.20;99.90
8711;DHT22;4392;47.400;8.062;2023-06-22T12:27:21;26.20;99.90
8711;DHT22;4392;47.400;8.062;2023-06-22T12:29:49;26.20;99.90
8711;DHT22;4392;47.400;8.062;2023-06-22T12:32:15;26.30;99.90
8711;DHT22;4392;47.400;8.062;2023-06-22T12:34:44;26.20;99.90
8711;DHT22;4392;47.400;8.062;2023-06-22T12:37:13;26.30;99.90
8711;DHT22;4392;47.400;8.062;2023-06-22T12:39:41;26.20;99.90
8711;DHT22;4392;47.400;8.062;2023-06-22T12:42:13;26.20;99.90
8711;DHT22;4392;47.400;8.062;2023-06-22T12:44:39;26.10;99.90
8711;DHT22;4392;47.400;8.062;2023-06-22T12:47:05;26.20;99.90
8711;DHT22;4392;47.400;8.062;2023-06-22T12:49:31;26.40;99.90
8711;DHT22;4392;47.400;8.062;2023-06-22T12:51:57;26.50;99.90
8711;DHT22;4392;47.400;8.062;2023-06-22T12:54:23;26.60;99.90
8711;DHT22;4392;47.400;8.062;2023-06-22T12:56:50;26.60;99.90
8711;DHT22;4392;47.400;8.062;2023-06-22T12:59:15;26.50;99.90
8711;DHT22;4392;47.400;8.062;2023-06-22T13:01:45;26.50;99.90
8711;DHT22;4392;47.400;8.062;2023-06-22T13:04:13;26.50;99.90
8711;DHT22;4392;47.400;8.062;2023-06-22T13:06:41;26.50;99.90
8711;DHT22;4392;47.400;8.062;2023-06-22T13:09:08;26.50;99.90
8711;DHT22;4392;47.400;8.062;2023-06-22T13:11:34;26.50;98.80
8711;DHT22;4392;47.400;8.062;2023-06-22T13:14:00;26.50;97.10
8711;DHT22;4392;47.400;8.062;2023-06-22T13:16:26;26.50;95.60
8711;DHT22;4392;47.400;8.062;2023-06-22T13:18:59;26.50;96.10
8711;DHT22;4392;47.400;8.062;2023-06-22T13:21:25;26.50;97.20
8711;DHT22;4392;47.400;8.062;2023-06-22T13:23:53;26.50;97.60
8711;DHT22;4392;47.400;8.062;2023-06-22T13:26:20;26.50;97.40
8711;DHT22;4392;47.400;8.062;2023-06-22T13:28:47;26.50;97.90
8711;DHT22;4392;47.400;8.062;2023-06-22T13:31:13;26.50;96.90
8711;DHT22;4392;47.400;8.062;2023-06-22T13:33:38;26.50;96.00
8711;DHT22;4392;47.400;8.062;2023-06-22T13:36:11;26.50;96.30
8711;DHT22;4392;47.400;8.062;2023-06-22T13:38:37;26.50;97.20
8711;DHT22;4392;47.400;8.062;2023-06-22T13:41:22;26.40;97.80
8711;DHT22;4392;47.400;8.062;2023-06-22T13:43:48;26.40;99.60
8711;DHT22;4392;47.400;8.062;2023-06-22T13:46:14;26.30;99.90
8711;DHT22;4392;47.400;8.062;2023-06-22T13:48:48;26.30;99.90
8711;DHT22;4392;47.400;8.062;2023-06-22T13:51:17;26.30;99.90
8711;DHT22;4392;47.400;8.062;2023-06-22T13:53:43;26.20;99.90
8711;DHT22;4392;47.400;8.062;2023-06-22T13:56:09;26.20;99.90
8711;DHT22;4392;47.400;8.062;2023-06-22T13:58:35;26.20;99.90
8711;DHT22;4392;47.400;8.062;2023-06-22T14:01:07;26.10;99.90
8711;DHT22;4392;47.400;8.062;2023-06-22T14:03:33;26.10;99.90
8711;DHT22;4392;47.400;8.062;2023-06-22T14:05:58;26.20;99.90
8711;DHT22;4392;47.400;8.062;2023-06-22T14:08:24;26.20;99.90
8711;DHT22;4392;47.400;8.062;2023-06-22T14:10:56;26.20;99.90
8711;DHT22;4392;47.400;8.062;2023-06-22T14:13:22;26.30;99.90
8711;DHT22;4392;47.400;8.062;2023-06-22T14:15:47;26.40;99.90
8711;DHT22;4392;47.400;8.062;2023-06-22T14:18:16;26.50;99.90
8711;DHT22;4392;47.400;8.062;2023-06-22T14:20:42;26.60;99.90
8711;DHT22;4392;47.400;8.062;2023-06-22T14:23:08;26.80;99.90
8711;DHT22;4392;47.400;8.062;2023-06-22T14:25:35;27.00;99.90
8711;DHT22;4392;47.400;8.062;2023-06-22T14:28:04;27.20;99.90
8711;DHT22;4392;47.400;8.062;2023-06-22T14:30:32;27.20;99.90
8711;DHT22;4392;47.400;8.062;2023-06-22T14:33:03;27.20;99.90
8711;DHT22;4392;47.400;8.062;2023-06-22T14:35:29;27.00;99.90
8711;DHT22;4392;47.400;8.062;2023-06-22T14:37:57;26.90;99.90
8711;DHT22;4392;47.400;8.062;2023-06-22T14:40:29;26.80;99.90
8711;DHT22;4392;47.400;8.062;2023-06-22T14:42:56;26.70;99.90
8711;DHT22;4392;47.400;8.062;2023-06-22T14:45:26;26.70;99.90
8711;DHT22;4392;47.400;8.062;2023-06-22T14:47:51;26.70;99.90
8711;DHT22;4392;47.400;8.062;2023-06-22T14:50:20;26.80;99.90
8711;DHT22;4392;47.400;8.062;2023-06-22T14:52:46;26.80;99.90
8711;DHT22;4392;47.400;8.062;2023-06-22T14:55:17;26.70;99.90
8711;DHT22;4392;47.400;8.062;2023-06-22T14:57:43;26.70;99.90
8711;DHT22;4392;47.400;8.062;2023-06-22T15:00:11;26.80;99.90
8711;DHT22;4392;47.400;8.062;2023-06-22T15:02:41;26.90;99.90
8711;DHT22;4392;47.400;8.062;2023-06-22T15:05:07;26.90;98.20
8711;DHT22;4392;47.400;8.062;2023-06-22T15:07:33;26.90;96.90
8711;DHT22;4392;47.400;8.062;2023-06-22T15:10:04;26.90;94.20
8711;DHT22;4392;47.400;8.062;2023-06-22T15:12:30;26.90;93.00
8711;DHT22;4392;47.400;8.062;2023-06-22T15:14:56;26.80;92.00
8711;DHT22;4392;47.400;8.062;2023-06-22T15:17:21;26.70;92.50
8711;DHT22;4392;47.400;8.062;2023-06-22T15:19:47;26.60;92.30
8711;DHT22;4392;47.400;8.062;2023-06-22T15:22:13;26.50;92.10
8711;DHT22;4392;47.400;8.062;2023-06-22T15:24:39;26.30;94.50
8711;DHT22;4392;47.400;8.062;2023-06-22T15:27:05;26.20;93.70
8711;DHT22;4392;47.400;8.062;2023-06-22T15:29:30;26.00;92.60
8711;DHT22;4392;47.400;8.062;2023-06-22T15:32:00;26.00;94.30
8711;DHT22;4392;47.400;8.062;2023-06-22T15:34:26;25.90;96.20
8711;DHT22;4392;47.400;8.062;2023-06-22T15:36:55;25.90;96.50
8711;DHT22;4392;47.400;8.062;2023-06-22T15:39:21;25.70;97.20
8711;DHT22;4392;47.400;8.062;2023-06-22T15:41:49;25.60;98.90
8711;DHT22;4392;47.400;8.062;2023-06-22T15:44:14;25.60;99.90
8711;DHT22;4392;47.400;8.062;2023-06-22T15:46:40;25.50;99.60
8711;DHT22;4392;47.400;8.062;2023-06-22T15:49:09;25.40;99.90
8711;DHT22;4392;47.400;8.062;2023-06-22T15:51:35;25.30;99.90
8711;DHT22;4392;47.400;8.062;2023-06-22T15:54:01;25.30;99.90
8711;DHT22;4392;47.400;8.062;2023-06-22T15:56:27;25.30;99.90
8711;DHT22;4392;47.400;8.062;2023-06-22T15:58:55;25.20;99.90
8711;DHT22;4392;47.400;8.062;2023-06-22T16:01:22;25.20;99.90
8711;DHT22;4392;47.400;8.062;2023-06-22T16:03:52;25.20;99.90
8711;DHT22;4392;47.400;8.062;2023-06-22T16:06:26;25.30;99.90
8711;DHT22;4392;47.400;8.062;2023-06-22T16:08:52;25.00;99.90
8711;DHT22;4392;47.400;8.062;2023-06-22T16:11:18;24.90;99.90